createdAt,value
2022-10-21T00:03:14.365Z,48.96174
2022-10-21T00:08:46.557Z,49.05651
2022-10-21T00:13:48.223Z,48.45376
2022-10-21T00:18:49.945Z,49.2585
2022-10-21T00:23:51.693Z,49.77771
2022-10-21T00:28:53.372Z,52.72242
2022-10-21T00:33:54.943Z,52.23067
2022-10-21T00:38:56.847Z,52.82127
2022-10-21T00:43:58.516Z,50.23436
2022-10-21T00:49:00.114Z,53.30215
2022-10-21T00:54:01.691Z,52.41548
2022-10-21T00:59:03.361Z,53.04949
2022-10-21T01:04:04.969Z,52.87462
2022-10-21T01:09:06.626Z,51.72838
2022-10-21T01:14:08.394Z,52.81394
2022-10-21T01:19:10.022Z,52.23294
2022-10-21T01:24:11.621Z,52.08049
2022-10-21T01:29:13.281Z,53.06918
2022-10-21T01:34:14.875Z,55.92769
2022-10-21T01:39:16.487Z,55.34504
2022-10-21T01:44:18.295Z,55.96624
2022-10-21T01:49:19.883Z,54.4265
2022-10-21T01:54:21.475Z,54.6581
2022-10-21T01:59:23.214Z,57.6443
2022-10-21T02:04:24.832Z,58.35146
2022-10-21T02:09:26.544Z,56.20296
2022-10-21T02:14:28.208Z,55.4634
2022-10-21T02:24:31.467Z,58.41134
2022-10-21T02:29:33.118Z,59.33227
2022-10-21T02:34:34.728Z,59.59616
2022-10-21T02:39:36.350Z,59.42287
2022-10-21T02:44:38.113Z,57.55225
2022-10-21T02:49:39.756Z,58.66316
2022-10-21T02:54:41.444Z,57.37009
2022-10-21T02:59:43.141Z,59.97471
2022-10-21T03:04:44.737Z,57.57483
2022-10-21T03:09:46.446Z,58.50245
2022-10-21T03:14:48.057Z,59.43332
2022-10-21T03:19:49.653Z,59.82091
2022-10-21T03:24:51.285Z,57.95676
2022-10-21T03:29:52.924Z,56.20866
2022-10-21T03:34:54.921Z,57.67436
2022-10-21T03:39:56.647Z,58.8754
2022-10-21T03:44:58.376Z,57.51027
2022-10-21T03:50:00.003Z,57.30921
2022-10-21T03:55:01.721Z,59.1689
2022-10-21T04:00:03.502Z,57.3224
2022-10-21T04:05:05.196Z,56.50394
2022-10-21T04:10:06.871Z,55.87619
2022-10-21T04:15:08.489Z,60.21424
2022-10-21T04:20:10.133Z,60.64708
2022-10-21T04:25:11.822Z,59.43352
2022-10-21T04:30:13.460Z,59.29567
2022-10-21T04:35:15.163Z,58.82341
2022-10-21T04:40:16.922Z,59.14354
2022-10-21T04:45:18.553Z,59.48057
2022-10-21T04:50:20.242Z,57.23161
2022-10-21T04:55:21.959Z,57.58754
2022-10-21T05:00:23.602Z,57.77735
2022-10-21T05:05:25.217Z,56.97825
2022-10-21T05:10:26.772Z,58.91032
2022-10-21T05:15:28.454Z,60.07866
2022-10-21T05:20:30.085Z,59.60397
2022-10-21T05:25:34.229Z,58.57957
2022-10-21T05:30:36.463Z,60.40144
2022-10-21T05:35:38.125Z,60.9165
2022-10-21T05:40:39.834Z,59.72507
2022-10-21T05:45:41.428Z,60.69972
2022-10-21T05:50:43.099Z,62.89476
2022-10-21T05:55:44.760Z,62.48744
2022-10-21T06:00:46.638Z,59.38026
2022-10-21T06:05:48.331Z,60.47643
2022-10-21T06:10:49.971Z,66.14264
2022-10-21T06:15:51.750Z,63.38082
2022-10-21T06:20:53.370Z,61.7635
2022-10-21T06:25:55.081Z,60.79587
2022-10-21T06:30:56.837Z,61.58749
2022-10-21T06:35:58.440Z,61.25436
2022-10-21T06:41:00.075Z,62.98267
2022-10-21T06:46:01.791Z,63.33537
2022-10-21T06:51:03.388Z,60.62027
2022-10-21T06:56:05.017Z,61.9195
2022-10-21T07:01:16.403Z,59.58227
2022-10-21T07:06:29.595Z,60.57429
2022-10-21T07:11:31.218Z,61.06985
2022-10-21T07:16:33.009Z,59.65853
2022-10-21T07:21:34.658Z,60.76493
2022-10-21T07:26:36.348Z,60.2726
2022-10-21T07:31:38.027Z,63.84018
2022-10-21T07:36:39.662Z,62.05865
2022-10-21T07:41:41.282Z,61.22833
2022-10-21T07:46:43.013Z,60.66276
2022-10-21T07:51:44.682Z,63.41741
2022-10-21T07:56:46.335Z,62.75014
2022-10-21T08:06:49.714Z,63.10583
2022-10-21T08:11:51.492Z,64.21119
2022-10-21T08:16:53.135Z,63.52523
2022-10-21T08:21:55.173Z,63.43593
2022-10-21T08:26:56.772Z,63.13523
2022-10-21T08:31:58.487Z,62.33089
2022-10-21T08:37:00.102Z,60.5206
2022-10-21T08:42:01.757Z,61.61163
2022-10-21T08:47:03.481Z,63.87383
2022-10-21T08:52:05.239Z,63.03058
2022-10-21T08:57:06.844Z,65.50821
2022-10-21T09:02:08.571Z,62.60311
2022-10-21T09:07:10.150Z,62.16401
2022-10-21T09:12:11.747Z,64.04932
2022-10-21T09:17:13.412Z,61.57532
2022-10-21T09:22:34.333Z,63.30403
2022-10-21T09:27:51.344Z,63.3167
2022-10-21T09:32:57.015Z,65.10927
2022-10-21T09:37:58.629Z,63.07027
2022-10-21T09:43:00.274Z,64.43544
2022-10-21T09:48:02.001Z,63.31977
2022-10-21T09:53:03.617Z,63.66802
2022-10-21T09:58:05.547Z,68.5448
2022-10-21T10:03:07.185Z,64.30792
2022-10-21T10:08:08.830Z,62.6539
2022-10-21T10:13:10.485Z,63.6483
2022-10-21T10:18:12.125Z,62.63321
2022-10-21T10:23:13.703Z,61.8089
2022-10-21T10:28:15.479Z,62.91102
2022-10-21T10:33:17.185Z,65.53363
2022-10-21T10:38:18.766Z,65.29359
2022-10-21T10:43:20.590Z,63.04457
2022-10-21T10:48:22.228Z,62.63653
2022-10-21T10:53:23.949Z,63.03585
2022-10-21T10:58:27.934Z,62.23319
2022-10-21T11:03:30.045Z,63.66718
2022-10-21T11:08:34.013Z,63.90774
2022-10-21T11:13:40.087Z,65.82696
2022-10-21T11:18:46.423Z,63.43381
2022-10-21T11:23:52.345Z,65.13375
2022-10-21T11:28:56.118Z,64.04569
2022-10-21T11:33:57.772Z,64.39759
2022-10-21T11:38:59.482Z,65.29436
2022-10-21T11:44:01.422Z,62.96203
2022-10-21T11:49:03.054Z,62.61776
2022-10-21T11:54:04.654Z,64.53272
2022-10-21T11:59:06.480Z,63.46993
2022-10-21T12:04:08.156Z,64.76953
2022-10-21T12:09:09.795Z,65.76366
2022-10-21T12:14:11.664Z,65.34184
2022-10-21T12:19:13.441Z,61.87529
2022-10-21T12:24:15.121Z,64.0725
2022-10-21T12:29:16.725Z,64.32245
2022-10-21T12:34:18.393Z,66.10043
2022-10-21T12:39:20.149Z,64.25438
2022-10-21T12:44:21.764Z,64.01387
2022-10-21T12:49:23.370Z,64.62052
2022-10-21T12:54:27.993Z,64.80243
2022-10-21T12:59:32.119Z,65.5173
2022-10-21T13:04:33.814Z,64.66502
2022-10-21T13:09:35.720Z,63.63232
2022-10-21T13:14:37.351Z,64.72538
2022-10-21T13:19:38.991Z,63.40718
2022-10-21T13:24:40.684Z,63.52006
2022-10-21T13:29:42.354Z,62.56347
2022-10-21T13:34:44.054Z,61.54814
2022-10-21T13:39:45.857Z,64.82073
2022-10-21T13:44:47.467Z,62.81774
2022-10-21T13:49:49.143Z,63.60291
2022-10-21T13:54:50.757Z,64.04055
2022-10-21T13:59:52.532Z,61.64043
2022-10-21T14:04:54.157Z,62.95364
2022-10-21T14:09:55.800Z,63.52095
2022-10-21T14:14:57.431Z,63.88165
2022-10-21T14:19:59.164Z,62.7289
2022-10-21T14:25:00.791Z,65.44318
2022-10-21T14:30:02.623Z,62.08281
2022-10-21T14:35:04.301Z,64.16904
2022-10-21T14:40:06.028Z,63.63698
2022-10-21T14:45:07.719Z,62.39553
2022-10-21T14:50:09.364Z,62.83204
2022-10-21T14:55:11.015Z,62.10994
2022-10-21T15:00:12.638Z,60.04174
2022-10-21T15:05:14.332Z,62.18107
2022-10-21T15:10:15.967Z,64.41184
2022-10-21T15:15:17.559Z,64.49799
2022-10-21T15:20:19.188Z,67.03378
2022-10-21T15:25:20.836Z,67.45116
2022-10-21T15:30:22.483Z,67.9558
2022-10-21T15:35:24.134Z,66.54877
2022-10-21T15:40:25.822Z,64.6225
2022-10-21T15:45:27.507Z,63.04959
2022-10-21T15:55:34.535Z,63.60238
2022-10-21T16:00:40.098Z,63.24206
2022-10-21T16:05:43.140Z,63.72985
2022-10-21T16:10:44.925Z,63.68759
2022-10-21T16:15:46.525Z,64.76208
2022-10-21T16:20:48.407Z,63.22971
2022-10-21T16:25:50.078Z,61.10042
2022-10-21T16:30:51.777Z,62.18745
2022-10-21T16:35:53.367Z,62.10983
2022-10-21T16:40:55.036Z,60.11121
2022-10-21T16:45:56.727Z,61.50266
2022-10-21T16:50:58.636Z,60.57579
2022-10-21T16:56:00.587Z,62.28476
2022-10-21T17:01:02.456Z,60.40041
2022-10-21T17:06:04.363Z,59.7647
2022-10-21T17:11:06.075Z,60.40052
2022-10-21T17:16:07.848Z,61.24836
2022-10-21T17:21:10.057Z,59.2028
2022-10-21T17:26:11.721Z,61.95463
2022-10-21T17:31:13.398Z,60.33927
2022-10-21T17:36:15.056Z,61.9027
2022-10-21T17:41:16.690Z,59.52658
2022-10-21T17:46:18.346Z,62.31665
2022-10-21T17:51:19.902Z,62.02428
2022-10-21T17:56:21.543Z,61.65783
2022-10-21T18:01:23.241Z,62.91738
2022-10-21T18:06:24.844Z,60.2543
2022-10-21T18:11:26.484Z,60.28162
2022-10-21T18:16:28.105Z,59.29053
2022-10-21T18:21:29.764Z,58.56539
2022-10-21T18:26:31.397Z,56.80346
2022-10-21T18:31:33.030Z,56.74743
2022-10-21T18:36:34.700Z,58.94016
2022-10-21T18:41:36.465Z,58.74808
2022-10-21T18:46:38.084Z,54.52778
2022-10-21T18:51:39.704Z,56.93104
2022-10-21T18:56:41.264Z,57.0974
2022-10-21T19:01:43.037Z,56.78768
2022-10-21T19:06:44.755Z,57.01254
2022-10-21T19:11:46.410Z,58.48634
2022-10-21T19:16:48.036Z,59.92331
2022-10-21T19:21:49.681Z,58.4605
2022-10-21T19:26:51.349Z,56.16087
2022-10-21T19:31:52.963Z,56.60354
2022-10-21T19:36:54.577Z,56.40428
2022-10-21T19:41:56.249Z,58.925
2022-10-21T19:46:57.934Z,60.16691
2022-10-21T19:51:59.580Z,57.57246
2022-10-21T19:57:01.264Z,57.92969
2022-10-21T20:02:02.962Z,55.58837
2022-10-21T20:07:04.554Z,59.10992
2022-10-21T20:12:06.713Z,56.95967
2022-10-21T20:17:08.375Z,57.39744
2022-10-21T20:22:10.164Z,60.09925
2022-10-21T20:27:11.945Z,60.17764
2022-10-21T20:32:13.604Z,61.29017
2022-10-21T20:37:15.248Z,60.4504
2022-10-21T20:42:16.860Z,61.10257
2022-10-21T20:47:18.474Z,59.87869
2022-10-21T20:52:20.210Z,62.20777
2022-10-21T20:57:21.810Z,59.74629
2022-10-21T21:02:23.525Z,60.34856
2022-10-21T21:07:25.279Z,63.63227
2022-10-21T21:12:26.932Z,61.11052
2022-10-21T21:17:28.589Z,60.9376
2022-10-21T21:22:30.166Z,62.81801
2022-10-21T21:27:31.758Z,61.03076
2022-10-21T21:32:33.342Z,59.14772
2022-10-21T21:37:35.089Z,59.05145
2022-10-21T21:42:36.739Z,56.91317
2022-10-21T21:47:38.308Z,57.99775
2022-10-21T21:52:39.901Z,61.14486
2022-10-21T21:57:41.527Z,62.54045
2022-10-21T22:02:43.460Z,61.45077
2022-10-21T22:07:45.493Z,62.414
2022-10-21T22:12:47.177Z,61.74696
2022-10-21T22:17:49.233Z,58.86173
2022-10-21T22:22:50.855Z,58.28656
2022-10-21T22:27:52.490Z,61.86754
2022-10-21T22:32:54.377Z,57.8608
2022-10-21T22:37:56.009Z,55.65891
2022-10-21T22:42:57.573Z,55.47052
2022-10-21T22:47:59.380Z,56.00356
2022-10-21T22:53:01.009Z,56.08993
2022-10-21T22:58:02.780Z,57.72467
2022-10-21T23:03:07.465Z,56.28659
2022-10-21T23:08:11.584Z,55.88317
2022-10-21T23:13:13.193Z,54.96231
2022-10-21T23:18:14.869Z,54.24669
2022-10-21T23:23:16.460Z,54.92584
2022-10-21T23:33:19.670Z,54.35727
2022-10-21T23:38:21.285Z,53.83771
2022-10-21T23:43:22.991Z,53.81488
2022-10-21T23:48:24.737Z,54.35115
2022-10-21T23:53:26.457Z,54.93973
2022-10-21T23:58:28.165Z,55.50334
